createdAt,value
2023-01-31T00:01:52.565Z,84.53
2023-01-31T00:04:20.125Z,84.89
2023-01-31T00:06:51.028Z,85.13
2023-01-31T00:09:19.015Z,85.61
2023-01-31T00:11:46.791Z,86.34
2023-01-31T00:14:19.948Z,87.78
2023-01-31T00:16:48.223Z,88.18
2023-01-31T00:19:17.519Z,88.98
2023-01-31T00:21:45.850Z,88.27
2023-01-31T00:24:13.756Z,88.89
2023-01-31T00:27:03.934Z,89.39
2023-01-31T00:29:33.254Z,90.00
2023-01-31T00:32:04.115Z,89.85
2023-01-31T00:34:35.473Z,89.00
2023-01-31T00:37:03.460Z,89.51
2023-01-31T00:39:31.129Z,89.27
2023-01-31T00:41:58.829Z,89.60
2023-01-31T00:44:26.375Z,90.23
2023-01-31T00:46:54.000Z,90.67
2023-01-31T00:49:23.817Z,90.87
2023-01-31T00:51:52.864Z,91.02
2023-01-31T00:54:20.592Z,91.82
2023-01-31T00:56:48.210Z,92.26
2023-01-31T00:59:16.151Z,92.15
2023-01-31T01:01:43.999Z,92.51
2023-01-31T01:04:11.683Z,92.93
2023-01-31T01:06:40.132Z,92.84
2023-01-31T01:09:09.162Z,92.54
2023-01-31T01:11:37.167Z,93.66
2023-01-31T01:14:05.181Z,94.22
2023-01-31T01:16:35.566Z,94.08
2023-01-31T01:19:05.224Z,94.41
2023-01-31T01:21:38.062Z,94.62
2023-01-31T01:24:07.755Z,94.16
2023-01-31T01:26:36.841Z,94.81
2023-01-31T01:29:05.480Z,94.38
2023-01-31T01:31:33.165Z,93.96
2023-01-31T01:34:02.802Z,93.51
2023-01-31T01:36:34.774Z,93.41
2023-01-31T01:39:02.679Z,93.85
2023-01-31T01:41:33.415Z,94.13
2023-01-31T01:44:04.099Z,94.09
2023-01-31T01:46:40.116Z,94.57
2023-01-31T01:49:28.084Z,93.31
2023-01-31T01:51:58.888Z,92.40
2023-01-31T01:54:29.875Z,92.28
2023-01-31T01:57:02.771Z,92.05
2023-01-31T01:59:36.193Z,91.56
2023-01-31T02:02:04.998Z,91.15
2023-01-31T02:04:36.996Z,91.42
2023-01-31T02:07:05.435Z,90.88
2023-01-31T02:09:38.251Z,90.45
2023-01-31T02:12:06.150Z,89.69
2023-01-31T02:14:35.165Z,89.38
2023-01-31T02:17:02.824Z,88.89
2023-01-31T02:19:37.175Z,89.20
2023-01-31T02:22:23.026Z,89.31
2023-01-31T02:25:31.114Z,89.91
2023-01-31T02:28:23.093Z,90.34
2023-01-31T02:31:37.643Z,90.09
2023-01-31T02:34:12.087Z,90.53
2023-01-31T02:36:52.929Z,90.45
2023-01-31T02:39:29.711Z,90.33
2023-01-31T02:42:02.029Z,91.25
2023-01-31T02:45:08.047Z,91.96
2023-01-31T02:47:47.216Z,91.71
2023-01-31T02:50:25.902Z,91.15
2023-01-31T02:52:59.995Z,91.72
2023-01-31T02:55:51.098Z,91.39
2023-01-31T02:58:23.417Z,91.32
2023-01-31T03:00:51.859Z,91.25
2023-01-31T03:03:23.039Z,91.56
2023-01-31T03:06:12.878Z,91.77
2023-01-31T03:08:44.481Z,91.57
2023-01-31T03:11:12.449Z,91.86
2023-01-31T03:13:50.404Z,92.29
2023-01-31T03:16:45.795Z,92.54
2023-01-31T03:19:17.579Z,91.81
2023-01-31T03:21:53.045Z,91.59
2023-01-31T03:24:26.475Z,90.54
2023-01-31T03:26:56.851Z,90.52
2023-01-31T03:29:25.977Z,89.71
2023-01-31T03:31:58.674Z,89.14
2023-01-31T03:34:27.794Z,89.84
2023-01-31T03:37:06.459Z,89.70
2023-01-31T03:39:40.861Z,89.59
2023-01-31T03:42:13.439Z,89.45
2023-01-31T03:44:52.238Z,90.44
2023-01-31T03:47:25.702Z,89.72
2023-01-31T03:49:55.439Z,89.58
2023-01-31T03:52:32.486Z,89.68
2023-01-31T03:55:05.457Z,89.13
2023-01-31T03:57:36.651Z,89.08
2023-01-31T04:00:09.780Z,89.60
2023-01-31T04:02:39.396Z,90.25
2023-01-31T04:05:11.068Z,89.61
2023-01-31T04:07:41.575Z,90.22
2023-01-31T04:10:14.638Z,90.21
2023-01-31T04:12:43.641Z,90.58
2023-01-31T04:15:12.540Z,90.65
2023-01-31T04:17:40.307Z,91.47
2023-01-31T04:20:10.847Z,91.13
2023-01-31T04:22:40.442Z,90.91
2023-01-31T04:25:09.072Z,91.75
2023-01-31T04:27:37.355Z,91.48
2023-01-31T04:30:05.810Z,91.61
2023-01-31T04:32:33.593Z,91.45
2023-01-31T04:35:02.410Z,91.15
2023-01-31T04:37:30.321Z,91.16
2023-01-31T04:39:59.271Z,91.04
2023-01-31T04:42:27.015Z,89.53
2023-01-31T04:44:54.651Z,88.58
2023-01-31T04:47:23.801Z,89.03
2023-01-31T04:49:51.442Z,88.85
2023-01-31T04:52:21.364Z,89.26
2023-01-31T04:54:48.930Z,89.53
2023-01-31T04:57:17.912Z,90.30
2023-01-31T04:59:50.182Z,90.69
2023-01-31T05:02:20.286Z,89.93
2023-01-31T05:04:48.145Z,90.31
2023-01-31T05:07:15.796Z,88.76
2023-01-31T05:09:44.023Z,88.97
2023-01-31T05:12:13.909Z,89.21
2023-01-31T05:14:42.974Z,89.23
2023-01-31T05:17:10.863Z,89.27
2023-01-31T05:19:38.701Z,88.93
2023-01-31T05:22:06.488Z,89.62
2023-01-31T05:24:34.740Z,91.22
2023-01-31T05:27:03.527Z,91.37
2023-01-31T05:29:33.600Z,91.29
2023-01-31T05:32:04.278Z,89.67
2023-01-31T05:34:33.661Z,90.00
2023-01-31T05:37:04.749Z,90.40
2023-01-31T05:39:32.719Z,90.88
2023-01-31T05:42:00.373Z,91.38
2023-01-31T05:44:28.000Z,90.74
2023-01-31T05:46:55.584Z,90.57
2023-01-31T05:49:24.542Z,91.36
2023-01-31T05:51:52.107Z,91.61
2023-01-31T05:54:19.878Z,91.84
2023-01-31T05:56:47.793Z,91.34
2023-01-31T05:59:17.323Z,90.78
2023-01-31T06:01:45.045Z,90.88
2023-01-31T06:04:14.971Z,91.73
2023-01-31T06:06:45.304Z,91.73
2023-01-31T06:09:13.055Z,91.35
2023-01-31T06:11:40.985Z,91.71
2023-01-31T06:14:09.564Z,92.10
2023-01-31T06:16:37.481Z,91.78
2023-01-31T06:19:08.625Z,91.72
2023-01-31T06:21:36.663Z,91.19
2023-01-31T06:24:06.718Z,91.26
2023-01-31T06:26:37.216Z,91.55
2023-01-31T06:29:05.415Z,91.16
2023-01-31T06:31:34.317Z,91.05
2023-01-31T06:34:02.037Z,91.18
2023-01-31T06:36:29.760Z,91.77
2023-01-31T06:38:58.121Z,91.12
2023-01-31T06:41:27.160Z,91.33
2023-01-31T06:43:55.269Z,91.30
2023-01-31T06:46:23.011Z,91.46
2023-01-31T06:48:50.619Z,91.52
2023-01-31T06:51:18.588Z,90.93
2023-01-31T06:53:46.288Z,89.87
2023-01-31T06:56:24.212Z,90.29
2023-01-31T06:58:54.804Z,89.02
2023-01-31T07:01:24.352Z,90.20
2023-01-31T07:03:52.045Z,89.55
2023-01-31T07:06:23.046Z,88.52
2023-01-31T07:08:56.198Z,88.68
2023-01-31T07:11:24.228Z,87.72
2023-01-31T07:13:53.101Z,88.04
2023-01-31T07:16:25.005Z,88.42
2023-01-31T07:18:53.767Z,87.83
2023-01-31T07:21:24.514Z,88.02
2023-01-31T07:23:53.352Z,87.84
2023-01-31T07:26:21.039Z,88.11
2023-01-31T07:28:49.121Z,87.25
2023-01-31T07:31:16.871Z,87.63
2023-01-31T07:33:45.942Z,87.15
2023-01-31T07:36:15.925Z,86.48
2023-01-31T07:38:44.041Z,85.53
2023-01-31T07:41:14.510Z,84.87
2023-01-31T07:43:42.135Z,82.69
2023-01-31T07:46:11.291Z,80.83
2023-01-31T07:48:39.202Z,77.85
2023-01-31T07:51:08.733Z,75.49
2023-01-31T07:53:42.190Z,74.09
2023-01-31T07:56:17.642Z,74.05
2023-01-31T07:58:47.390Z,75.84
2023-01-31T08:01:34.355Z,76.53
2023-01-31T08:04:14.507Z,77.27
2023-01-31T08:06:51.326Z,77.34
2023-01-31T08:09:19.193Z,77.31
2023-01-31T08:11:48.073Z,77.92
2023-01-31T08:14:15.716Z,77.31
2023-01-31T08:16:43.403Z,78.63
2023-01-31T08:19:12.135Z,78.88
2023-01-31T08:21:39.873Z,79.65
2023-01-31T08:24:11.630Z,80.14
2023-01-31T08:26:39.315Z,79.84
2023-01-31T08:29:07.010Z,81.11
2023-01-31T08:31:34.910Z,80.85
2023-01-31T08:34:03.295Z,81.30
2023-01-31T08:36:34.018Z,81.34
2023-01-31T08:39:01.883Z,81.02
2023-01-31T08:41:33.018Z,80.97
2023-01-31T08:44:02.848Z,81.27
2023-01-31T08:46:33.841Z,80.76
2023-01-31T08:49:02.956Z,81.45
2023-01-31T08:51:32.527Z,82.63
2023-01-31T08:54:00.206Z,82.69
2023-01-31T08:56:28.194Z,82.19
2023-01-31T08:58:58.715Z,82.05
2023-01-31T09:01:26.816Z,82.66
2023-01-31T09:03:57.122Z,82.72
2023-01-31T09:06:27.368Z,83.56
2023-01-31T09:08:56.745Z,83.75
2023-01-31T09:11:31.687Z,83.71
2023-01-31T09:14:00.862Z,82.85
2023-01-31T09:16:29.115Z,84.00
2023-01-31T09:18:57.372Z,84.14
2023-01-31T09:21:27.862Z,83.40
2023-01-31T09:24:03.773Z,84.22
2023-01-31T09:26:32.329Z,84.35
2023-01-31T09:29:01.970Z,83.62
2023-01-31T09:31:30.313Z,84.02
2023-01-31T09:33:58.436Z,83.79
2023-01-31T09:36:27.254Z,84.95
2023-01-31T09:38:56.700Z,84.07
2023-01-31T09:41:29.806Z,83.74
2023-01-31T09:44:03.812Z,82.88
2023-01-31T09:46:37.737Z,82.49
2023-01-31T09:49:09.279Z,82.63
2023-01-31T09:51:40.058Z,83.36
2023-01-31T09:54:18.753Z,82.71
2023-01-31T09:56:57.843Z,83.18
2023-01-31T09:59:33.799Z,83.42
2023-01-31T10:02:39.425Z,83.02
2023-01-31T10:05:21.662Z,82.63
2023-01-31T10:08:00.593Z,83.77
2023-01-31T10:10:37.965Z,83.45
2023-01-31T10:13:11.733Z,83.10
2023-01-31T10:15:46.506Z,83.02
2023-01-31T10:18:21.235Z,83.40
2023-01-31T10:20:52.484Z,83.51
2023-01-31T10:23:29.277Z,84.13
2023-01-31T10:26:02.884Z,84.25
2023-01-31T10:28:36.801Z,83.31
2023-01-31T10:31:12.956Z,83.71
2023-01-31T10:33:48.998Z,83.13
2023-01-31T10:36:30.401Z,82.90
2023-01-31T10:39:04.029Z,82.89
2023-01-31T10:41:42.167Z,81.91
2023-01-31T10:44:21.226Z,81.65
2023-01-31T10:46:52.457Z,81.90
2023-01-31T10:49:25.576Z,81.05
2023-01-31T10:52:13.225Z,81.62
2023-01-31T10:54:53.248Z,80.95
2023-01-31T10:57:20.955Z,80.58
2023-01-31T10:59:50.228Z,81.09
2023-01-31T11:02:22.212Z,81.00
2023-01-31T11:04:54.247Z,79.92
2023-01-31T11:07:23.255Z,78.99
2023-01-31T11:09:54.135Z,78.96
2023-01-31T11:12:22.819Z,78.56
2023-01-31T11:15:07.823Z,78.89
2023-01-31T11:17:40.155Z,79.81
2023-01-31T11:20:20.138Z,79.30
2023-01-31T11:22:48.092Z,79.14
2023-01-31T11:25:21.045Z,78.43
2023-01-31T11:27:52.122Z,78.16
2023-01-31T11:30:24.235Z,79.09
2023-01-31T11:32:53.352Z,79.76
2023-01-31T11:35:28.140Z,80.20
2023-01-31T11:37:57.378Z,80.29
2023-01-31T11:40:30.819Z,80.30
2023-01-31T11:43:00.041Z,79.72
2023-01-31T11:45:31.280Z,80.08
2023-01-31T11:48:08.228Z,80.47
2023-01-31T11:50:39.728Z,80.82
2023-01-31T11:53:18.559Z,79.90
2023-01-31T11:55:48.876Z,80.17
2023-01-31T11:58:20.796Z,79.28
2023-01-31T12:00:57.998Z,80.03
2023-01-31T12:03:28.837Z,80.48
2023-01-31T12:06:02.186Z,80.16
2023-01-31T12:08:36.389Z,79.94
2023-01-31T12:11:06.495Z,79.38
2023-01-31T12:13:47.480Z,79.81
2023-01-31T12:16:18.320Z,80.28
2023-01-31T12:19:05.971Z,80.42
2023-01-31T12:21:51.151Z,80.09
2023-01-31T12:24:32.294Z,80.08
2023-01-31T12:27:12.870Z,80.67
2023-01-31T12:29:59.770Z,80.07
2023-01-31T12:32:50.699Z,80.00
2023-01-31T12:35:31.671Z,79.48
2023-01-31T12:38:14.088Z,79.29
2023-01-31T12:40:49.874Z,78.72
2023-01-31T12:43:38.535Z,79.36
2023-01-31T12:46:15.752Z,78.61
2023-01-31T12:49:42.767Z,79.02
2023-01-31T12:52:20.302Z,78.94
2023-01-31T12:54:58.607Z,79.25
2023-01-31T12:57:34.882Z,79.42
2023-01-31T13:00:17.964Z,80.31
2023-01-31T13:03:01.574Z,81.40
2023-01-31T13:05:35.542Z,82.58
2023-01-31T13:08:11.181Z,82.75
2023-01-31T13:10:47.107Z,82.13
2023-01-31T13:13:20.468Z,82.41
2023-01-31T13:15:52.133Z,81.65
2023-01-31T13:18:21.882Z,81.21
2023-01-31T13:20:55.401Z,81.20
2023-01-31T13:23:31.556Z,80.96
2023-01-31T13:26:06.580Z,81.11
2023-01-31T13:28:40.422Z,80.78
2023-01-31T13:31:16.811Z,80.91
2023-01-31T13:33:50.299Z,81.06
2023-01-31T13:36:26.492Z,80.92
2023-01-31T13:38:56.945Z,80.72
2023-01-31T13:41:29.342Z,80.86
2023-01-31T13:43:57.905Z,80.84
2023-01-31T13:46:30.691Z,81.08
2023-01-31T13:49:02.067Z,81.17
2023-01-31T13:51:38.086Z,82.03
2023-01-31T13:54:17.107Z,82.65
2023-01-31T13:56:51.281Z,83.12
2023-01-31T13:59:22.804Z,84.07
2023-01-31T14:01:52.357Z,84.47
2023-01-31T14:04:29.569Z,85.59
2023-01-31T14:07:25.190Z,85.75
2023-01-31T14:10:38.700Z,86.38
2023-01-31T14:13:42.030Z,86.05
2023-01-31T14:16:46.342Z,87.01
2023-01-31T14:19:53.297Z,88.27
2023-01-31T14:22:22.471Z,88.96
2023-01-31T14:25:01.143Z,88.73
2023-01-31T14:27:32.975Z,89.55
2023-01-31T14:30:25.839Z,91.47
2023-01-31T14:33:08.563Z,92.77
2023-01-31T14:35:56.311Z,95.13
2023-01-31T14:38:40.529Z,96.43
2023-01-31T14:41:19.169Z,99.16
2023-01-31T14:43:59.327Z,99.80
2023-01-31T14:47:08.007Z,100.00
2023-01-31T14:49:54.004Z,100.00
2023-01-31T14:52:34.922Z,100.00
2023-01-31T14:55:27.140Z,100.00
2023-01-31T14:57:58.598Z,100.00
2023-01-31T15:00:29.733Z,100.00
2023-01-31T15:03:06.543Z,100.00
2023-01-31T15:05:43.094Z,100.00
2023-01-31T15:08:43.436Z,100.00
2023-01-31T15:11:42.406Z,100.00
2023-01-31T15:14:34.602Z,100.00
2023-01-31T15:17:07.640Z,100.00
2023-01-31T15:19:49.003Z,100.00
2023-01-31T15:22:21.866Z,100.00
2023-01-31T15:24:52.507Z,100.00
2023-01-31T15:27:24.714Z,100.00
2023-01-31T15:30:03.075Z,100.00
2023-01-31T15:32:40.524Z,100.00
2023-01-31T15:35:19.232Z,100.00
2023-01-31T15:37:48.728Z,100.00
2023-01-31T15:40:21.403Z,100.00
2023-01-31T15:42:48.986Z,100.00
2023-01-31T15:45:22.968Z,100.00
2023-01-31T15:47:58.607Z,100.00
2023-01-31T15:50:35.305Z,100.00
2023-01-31T15:53:07.472Z,100.00
2023-01-31T15:55:36.963Z,100.00
2023-01-31T15:58:07.098Z,100.00
2023-01-31T16:00:39.037Z,100.00
2023-01-31T16:03:08.425Z,100.00
2023-01-31T16:05:40.213Z,100.00
2023-01-31T16:08:19.356Z,100.00
2023-01-31T16:10:49.789Z,100.00
2023-01-31T16:13:18.851Z,100.00
2023-01-31T16:15:46.888Z,100.00
2023-01-31T16:18:15.309Z,100.00
2023-01-31T16:20:54.888Z,100.00
2023-01-31T16:23:29.277Z,100.00
2023-01-31T16:26:02.749Z,100.00
2023-01-31T16:28:40.392Z,100.00
2023-01-31T16:31:11.189Z,100.00
2023-01-31T16:33:40.097Z,100.00
2023-01-31T16:36:17.226Z,100.00
2023-01-31T16:38:56.819Z,100.00
2023-01-31T16:41:41.283Z,100.00
2023-01-31T16:44:17.701Z,100.00
2023-01-31T16:46:56.594Z,100.00
2023-01-31T16:49:28.306Z,100.00
2023-01-31T16:52:11.228Z,100.00
2023-01-31T16:54:50.540Z,100.00
2023-01-31T16:57:24.205Z,100.00
2023-01-31T16:59:53.902Z,100.00
2023-01-31T17:02:28.769Z,100.00
2023-01-31T17:05:01.180Z,100.00
2023-01-31T17:07:33.425Z,100.00
2023-01-31T17:10:04.054Z,100.00
2023-01-31T17:12:35.015Z,100.00
2023-01-31T17:15:04.033Z,100.00
2023-01-31T17:17:34.538Z,100.00
2023-01-31T17:20:02.422Z,99.60
2023-01-31T17:22:31.616Z,99.48
2023-01-31T17:24:59.418Z,99.45
2023-01-31T17:27:27.091Z,100.00
2023-01-31T17:29:55.088Z,100.00
2023-01-31T17:32:22.831Z,100.00
2023-01-31T17:34:50.370Z,100.00
2023-01-31T17:37:30.095Z,100.00
2023-01-31T17:40:00.814Z,100.00
2023-01-31T17:42:28.542Z,100.00
2023-01-31T17:44:56.214Z,100.00
2023-01-31T17:47:26.883Z,100.00
2023-01-31T17:49:55.468Z,100.00
2023-01-31T17:52:23.228Z,100.00
2023-01-31T17:54:51.014Z,100.00
2023-01-31T17:57:25.948Z,100.00
2023-01-31T17:59:57.738Z,100.00
2023-01-31T18:02:26.157Z,100.00
2023-01-31T18:04:55.150Z,100.00
2023-01-31T18:07:23.020Z,100.00
2023-01-31T18:09:51.858Z,100.00
2023-01-31T18:12:21.086Z,100.00
2023-01-31T18:14:48.803Z,100.00
2023-01-31T18:17:16.810Z,99.07
2023-01-31T18:19:46.596Z,99.11
2023-01-31T18:22:14.791Z,99.32
2023-01-31T18:24:42.422Z,98.70
2023-01-31T18:27:11.630Z,99.00
2023-01-31T18:29:41.344Z,99.17
2023-01-31T18:32:12.408Z,99.91
2023-01-31T18:34:40.037Z,98.57
2023-01-31T18:37:19.196Z,99.10
2023-01-31T18:39:49.901Z,99.68
2023-01-31T18:42:18.225Z,100.00
2023-01-31T18:44:48.577Z,99.73
2023-01-31T18:47:19.243Z,99.48
2023-01-31T18:49:46.923Z,98.74
2023-01-31T18:52:17.012Z,98.73
2023-01-31T18:54:45.434Z,99.21
2023-01-31T18:57:13.408Z,100.00
2023-01-31T18:59:41.661Z,100.00
2023-01-31T19:02:11.857Z,100.00
2023-01-31T19:04:46.852Z,100.00
2023-01-31T19:07:14.497Z,100.00
2023-01-31T19:09:42.104Z,100.00
2023-01-31T19:12:09.971Z,100.00
2023-01-31T19:14:39.677Z,100.00
2023-01-31T19:17:07.324Z,100.00
2023-01-31T19:19:36.207Z,100.00
2023-01-31T19:22:06.401Z,100.00
2023-01-31T19:24:34.229Z,100.00
2023-01-31T19:27:01.997Z,100.00
2023-01-31T19:29:29.711Z,100.00
2023-01-31T19:31:58.700Z,100.00
2023-01-31T19:34:26.716Z,100.00
2023-01-31T19:36:56.753Z,100.00
2023-01-31T19:39:26.635Z,100.00
2023-01-31T19:41:57.018Z,100.00
2023-01-31T19:44:26.530Z,100.00
2023-01-31T19:46:54.298Z,100.00
2023-01-31T19:49:23.203Z,100.00
2023-01-31T19:51:51.275Z,100.00
2023-01-31T19:54:21.096Z,100.00
2023-01-31T19:56:49.211Z,100.00
2023-01-31T19:59:16.943Z,100.00
2023-01-31T20:01:45.361Z,100.00
2023-01-31T20:04:13.468Z,100.00
2023-01-31T20:06:41.208Z,100.00
2023-01-31T20:09:20.343Z,100.00
2023-01-31T20:12:02.295Z,100.00
2023-01-31T20:14:30.374Z,100.00
2023-01-31T20:16:58.476Z,98.87
2023-01-31T20:19:29.898Z,98.49
2023-01-31T20:21:58.669Z,98.56
2023-01-31T20:24:26.432Z,98.77
2023-01-31T20:27:01.231Z,98.88
2023-01-31T20:29:31.840Z,98.75
2023-01-31T20:32:01.133Z,99.81
2023-01-31T20:34:28.762Z,99.48
2023-01-31T20:36:56.717Z,98.64
2023-01-31T20:39:25.461Z,98.98
2023-01-31T20:41:56.783Z,98.51
2023-01-31T20:44:28.197Z,99.07
2023-01-31T20:46:58.683Z,99.17
2023-01-31T20:49:28.754Z,98.41
2023-01-31T20:51:56.552Z,98.32
2023-01-31T20:54:24.718Z,98.55
2023-01-31T20:56:53.144Z,99.91
2023-01-31T20:59:20.853Z,100.00
2023-01-31T21:01:57.621Z,100.00
2023-01-31T21:04:25.486Z,100.00
2023-01-31T21:06:53.406Z,100.00
2023-01-31T21:09:23.157Z,100.00
2023-01-31T21:11:51.080Z,100.00
2023-01-31T21:14:18.972Z,100.00
2023-01-31T21:16:48.652Z,100.00
2023-01-31T21:19:19.153Z,100.00
2023-01-31T21:21:47.069Z,100.00
2023-01-31T21:24:17.182Z,100.00
2023-01-31T21:26:45.261Z,100.00
2023-01-31T21:29:13.001Z,100.00
2023-01-31T21:31:40.905Z,100.00
2023-01-31T21:34:08.618Z,100.00
2023-01-31T21:36:46.324Z,100.00
2023-01-31T21:39:13.991Z,100.00
2023-01-31T21:41:59.448Z,100.00
2023-01-31T21:44:28.334Z,100.00
2023-01-31T21:46:55.987Z,100.00
2023-01-31T21:49:23.723Z,100.00
2023-01-31T21:51:52.804Z,100.00
2023-01-31T21:54:20.400Z,100.00
2023-01-31T21:56:48.305Z,100.00
2023-01-31T21:59:16.288Z,100.00
2023-01-31T22:01:43.852Z,100.00
2023-01-31T22:04:11.604Z,100.00
2023-01-31T22:06:41.349Z,100.00
2023-01-31T22:09:12.676Z,100.00
2023-01-31T22:11:40.638Z,100.00
2023-01-31T22:14:10.250Z,100.00
2023-01-31T22:16:39.721Z,100.00
2023-01-31T22:19:08.043Z,100.00
2023-01-31T22:21:37.508Z,100.00
2023-01-31T22:24:07.307Z,100.00
2023-01-31T22:26:38.694Z,100.00
2023-01-31T22:29:08.344Z,100.00
2023-01-31T22:31:37.036Z,100.00
2023-01-31T22:34:05.520Z,100.00
2023-01-31T22:36:33.468Z,100.00
2023-01-31T22:39:01.264Z,100.00
2023-01-31T22:41:29.258Z,100.00
2023-01-31T22:43:58.468Z,100.00
2023-01-31T22:46:28.219Z,100.00
2023-01-31T22:48:57.088Z,100.00
2023-01-31T22:51:26.678Z,100.00
2023-01-31T22:53:54.945Z,100.00
2023-01-31T22:56:24.845Z,100.00
2023-01-31T22:58:56.962Z,100.00
2023-01-31T23:01:29.295Z,100.00
2023-01-31T23:03:58.607Z,100.00
2023-01-31T23:06:27.641Z,100.00
2023-01-31T23:08:55.701Z,100.00
2023-01-31T23:11:24.338Z,100.00
2023-01-31T23:13:52.204Z,100.00
2023-01-31T23:16:42.909Z,100.00
2023-01-31T23:19:12.132Z,100.00
2023-01-31T23:21:42.663Z,100.00
2023-01-31T23:24:11.018Z,100.00
2023-01-31T23:26:39.934Z,100.00
2023-01-31T23:29:07.878Z,100.00
2023-01-31T23:31:35.770Z,100.00
2023-01-31T23:34:06.024Z,100.00
2023-01-31T23:36:35.076Z,100.00
2023-01-31T23:39:02.900Z,100.00
2023-01-31T23:41:30.412Z,100.00
2023-01-31T23:43:58.420Z,100.00
2023-01-31T23:46:26.150Z,100.00
2023-01-31T23:48:54.568Z,100.00
2023-01-31T23:51:22.174Z,100.00
2023-01-31T23:53:51.139Z,100.00
2023-01-31T23:56:18.848Z,100.00
2023-01-31T23:58:46.470Z,100.00
